Goldway — D5JC6 — position and weather

sailwx.info

Track history (hours):
 
Tides and Currents Weather Stations Pressure Air Temp Water Temp Dewpoint Dewpoint Depression Visibility Wind Speed Wind Dir Waves Ship Positions

Goldway

Last reported at 2018-Apr-09 18:14 UTC. Time now 2018-Apr-22 13:53 UTC.
Position N 01°17' E 103°21'.
Warning: this ship's position is 12 days out of date.

Length 277 m; draft 9.5 m.

Type: Ship. MMSI: 636017060.

Date/timePositionNaut miles runAvg speedWind from/ knotsBaromVisibWave heightAir tempDewpointWater temp
2018-Apr-09 18:14N 01°17' E 103°21'313.6
2018-Apr-09 17:59N 01°15' E 103°24'713.8
2018-Apr-09 17:30N 01°13' E 103°30'713.6
2018-Apr-09 16:59N 01°12' E 103°37'611.9
2018-Apr-09 16:30N 01°09' E 103°42'611.9
2018-Apr-09 16:00N 01°11' E 103°48'713.4
2018-Apr-09 15:30N 01°13' E 103°54'3 5.0
2018-Apr-09 14:59N 01°15' E 103°56'1 0.3
2018-Apr-09 10:33N 01°15' E 103°55'0 0.1
2018-Apr-09 10:24N 01°15' E 103°55'0 0.0
2018-Apr-09 05:24N 01°15' E 103°55'0 0.0
2018-Apr-09 04:54N 01°15' E 103°55'0 0.1
2018-Apr-09 04:30N 01°15' E 103°55'0 0.1
2018-Apr-09 03:57N 01°15' E 103°55'0 0.0
2018-Apr-09 03:30N 01°15' E 103°55'0 0.1
2018-Apr-09 02:59N 01°15' E 103°55'0 0.1
2018-Apr-09 02:30N 01°15' E 103°55'0 0.1
2018-Apr-09 02:01N 01°15' E 103°55'0 0.1
2018-Apr-09 01:30N 01°15' E 103°55'0 0.0
2018-Apr-09 01:00N 01°15' E 103°55'0 0.0
2018-Apr-09 00:30N 01°15' E 103°55'0 0.1
2018-Apr-09 00:00N 01°15' E 103°55'0 0.6
2018-Apr-08 23:30N 01°15' E 103°55'2 4.7
2018-Apr-08 23:00N 01°15' E 103°57'3 5.6
2018-Apr-08 22:23N 01°16' E 104°00'2 5.7
2018-Apr-08 22:01N 01°16' E 104°03'  
2018-Apr-02 19:54N 23°40' E 123°02'411.1
2018-Apr-02 19:30N 23°44' E 123°04'510.6
2018-Apr-02 19:00N 23°49' E 123°04'510.7
2018-Apr-02 18:30N 23°54' E 123°05'510.9
2018-Apr-02 18:00N 23°59' E 123°08'611.3
2018-Apr-02 17:30N 24°04' E 123°11'611.6
2018-Apr-02 17:00N 24°09' E 123°14'611.8
2018-Apr-02 16:30N 24°14' E 123°17'611.3
2018-Apr-02 16:00N 24°19' E 123°20'611.0
2018-Apr-02 15:30N 24°24' E 123°22'511.1
2018-Apr-02 15:00N 24°29' E 123°25'611.3
2018-Apr-02 14:30N 24°34' E 123°28'611.4
2018-Apr-02 14:00N 24°39' E 123°30'611.0
2018-Apr-02 13:30N 24°44' E 123°33'510.4
2018-Apr-02 13:01N 24°49' E 123°35'510.5
2018-Apr-02 12:30N 24°54' E 123°38'  
2018-Mar-31 06:43N 33°50' E 128°41'411.3
2018-Mar-31 06:23N 33°53' E 128°43'411.3
2018-Mar-31 06:00N 33°57' E 128°45'611.2
2018-Mar-31 05:30N 34°02' E 128°48'511.0
2018-Mar-31 05:00N 34°07' E 128°52'811.3
2018-Mar-31 04:20N 34°14' E 128°55'411.3
2018-Mar-31 03:59N 34°17' E 128°57'611.0
2018-Mar-31 03:24N 34°23' E 129°01'1210.1
2018-Mar-31 02:15N 34°34' E 129°06'210.1
2018-Mar-31 02:00N 34°36' E 129°07'510.5
2018-Mar-31 01:30N 34°41' E 129°09'611.3
2018-Mar-31 00:58N 34°47' E 129°07'611.8
2018-Mar-31 00:30N 34°53' E 129°06'711.7
2018-Mar-30 23:56N 34°59' E 129°03'2 3.5
2018-Mar-30 23:29N 35°00' E 129°03'0 0.1
2018-Mar-30 22:07N 35°00' E 129°03'  
Track history (hours):
 
Tides and Currents Weather Stations Pressure Air Temp Water Temp Dewpoint Dewpoint Depression Visibility Wind Speed Wind Dir Waves Ship Positions

Goldway

Last reported at 2018-Apr-09 18:14 UTC. Time now 2018-Apr-22 13:53 UTC.
Position N 01°17' E 103°21'.
Warning: this ship's position is 12 days out of date.

Length 277 m; draft 9.5 m.

Type: Ship. MMSI: 636017060.

Date/timePositionNaut miles runAvg speedWind from/ knotsBaromVisibWave heightAir tempDewpointWater temp
2018-Apr-09 18:14N 01°17' E 103°21'313.6
2018-Apr-09 17:59N 01°15' E 103°24'713.8
2018-Apr-09 17:30N 01°13' E 103°30'713.6
2018-Apr-09 16:59N 01°12' E 103°37'611.9
2018-Apr-09 16:30N 01°09' E 103°42'611.9
2018-Apr-09 16:00N 01°11' E 103°48'713.4
2018-Apr-09 15:30N 01°13' E 103°54'3 5.0
2018-Apr-09 14:59N 01°15' E 103°56'1 0.3
2018-Apr-09 10:33N 01°15' E 103°55'0 0.1
2018-Apr-09 10:24N 01°15' E 103°55'0 0.0
2018-Apr-09 05:24N 01°15' E 103°55'0 0.0
2018-Apr-09 04:54N 01°15' E 103°55'0 0.1
2018-Apr-09 04:30N 01°15' E 103°55'0 0.1
2018-Apr-09 03:57N 01°15' E 103°55'0 0.0
2018-Apr-09 03:30N 01°15' E 103°55'0 0.1
2018-Apr-09 02:59N 01°15' E 103°55'0 0.1
2018-Apr-09 02:30N 01°15' E 103°55'0 0.1
2018-Apr-09 02:01N 01°15' E 103°55'0 0.1
2018-Apr-09 01:30N 01°15' E 103°55'0 0.0
2018-Apr-09 01:00N 01°15' E 103°55'0 0.0
2018-Apr-09 00:30N 01°15' E 103°55'0 0.1
2018-Apr-09 00:00N 01°15' E 103°55'0 0.6
2018-Apr-08 23:30N 01°15' E 103°55'2 4.7
2018-Apr-08 23:00N 01°15' E 103°57'3 5.6
2018-Apr-08 22:23N 01°16' E 104°00'2 5.7
2018-Apr-08 22:01N 01°16' E 104°03'  
2018-Apr-02 19:54N 23°40' E 123°02'411.1
2018-Apr-02 19:30N 23°44' E 123°04'510.6
2018-Apr-02 19:00N 23°49' E 123°04'510.7
2018-Apr-02 18:30N 23°54' E 123°05'510.9
2018-Apr-02 18:00N 23°59' E 123°08'611.3
2018-Apr-02 17:30N 24°04' E 123°11'611.6
2018-Apr-02 17:00N 24°09' E 123°14'611.8
2018-Apr-02 16:30N 24°14' E 123°17'611.3
2018-Apr-02 16:00N 24°19' E 123°20'611.0
2018-Apr-02 15:30N 24°24' E 123°22'511.1
2018-Apr-02 15:00N 24°29' E 123°25'611.3
2018-Apr-02 14:30N 24°34' E 123°28'611.4
2018-Apr-02 14:00N 24°39' E 123°30'611.0
2018-Apr-02 13:30N 24°44' E 123°33'510.4
2018-Apr-02 13:01N 24°49' E 123°35'510.5
2018-Apr-02 12:30N 24°54' E 123°38'  
2018-Mar-31 06:43N 33°50' E 128°41'411.3
2018-Mar-31 06:23N 33°53' E 128°43'411.3
2018-Mar-31 06:00N 33°57' E 128°45'611.2
2018-Mar-31 05:30N 34°02' E 128°48'511.0
2018-Mar-31 05:00N 34°07' E 128°52'811.3
2018-Mar-31 04:20N 34°14' E 128°55'411.3
2018-Mar-31 03:59N 34°17' E 128°57'611.0
2018-Mar-31 03:24N 34°23' E 129°01'1210.1
2018-Mar-31 02:15N 34°34' E 129°06'210.1
2018-Mar-31 02:00N 34°36' E 129°07'510.5
2018-Mar-31 01:30N 34°41' E 129°09'611.3
2018-Mar-31 00:58N 34°47' E 129°07'611.8
2018-Mar-31 00:30N 34°53' E 129°06'711.7
2018-Mar-30 23:56N 34°59' E 129°03'2 3.5
2018-Mar-30 23:29N 35°00' E 129°03'0 0.1
2018-Mar-30 22:07N 35°00' E 129°03'  

Dump ship's entire track history